sensor_id;sensor_type;location;lat;lon;timestamp;P1;durP1;ratioP1;P2;durP2;ratioP2
23608;SDS011;11982;50.810;4.442;2023-04-24T00:00:04;40.83;;;21.02;;
23608;SDS011;11982;50.810;4.442;2023-04-24T00:02:31;36.58;;;20.15;;
23608;SDS011;11982;50.810;4.442;2023-04-24T00:04:57;43.42;;;20.40;;
23608;SDS011;11982;50.810;4.442;2023-04-24T00:07:27;43.35;;;20.17;;
23608;SDS011;11982;50.810;4.442;2023-04-24T00:09:53;43.65;;;21.35;;
23608;SDS011;11982;50.810;4.442;2023-04-24T00:12:19;45.35;;;20.42;;
23608;SDS011;11982;50.810;4.442;2023-04-24T00:14:45;39.15;;;21.55;;
23608;SDS011;11982;50.810;4.442;2023-04-24T00:17:11;49.10;;;21.02;;
23608;SDS011;11982;50.810;4.442;2023-04-24T00:19:37;41.53;;;21.83;;
23608;SDS011;11982;50.810;4.442;2023-04-24T00:22:02;43.38;;;20.67;;
23608;SDS011;11982;50.810;4.442;2023-04-24T00:24:28;44.15;;;21.20;;
23608;SDS011;11982;50.810;4.442;2023-04-24T00:26:54;44.97;;;21.05;;
23608;SDS011;11982;50.810;4.442;2023-04-24T00:29:19;42.17;;;20.27;;
23608;SDS011;11982;50.810;4.442;2023-04-24T00:31:45;43.50;;;21.35;;
23608;SDS011;11982;50.810;4.442;2023-04-24T00:34:11;40.60;;;20.77;;
23608;SDS011;11982;50.810;4.442;2023-04-24T00:36:37;51.83;;;22.38;;
23608;SDS011;11982;50.810;4.442;2023-04-24T00:39:03;46.10;;;21.48;;
23608;SDS011;11982;50.810;4.442;2023-04-24T00:41:28;41.40;;;20.35;;
23608;SDS011;11982;50.810;4.442;2023-04-24T00:43:55;47.67;;;21.85;;
23608;SDS011;11982;50.810;4.442;2023-04-24T00:46:21;43.38;;;21.95;;
23608;SDS011;11982;50.810;4.442;2023-04-24T00:48:46;42.33;;;22.30;;
23608;SDS011;11982;50.810;4.442;2023-04-24T00:51:12;42.30;;;21.10;;
23608;SDS011;11982;50.810;4.442;2023-04-24T00:53:38;35.70;;;20.52;;
23608;SDS011;11982;50.810;4.442;2023-04-24T00:56:03;39.17;;;21.17;;
23608;SDS011;11982;50.810;4.442;2023-04-24T00:58:30;42.50;;;21.63;;
23608;SDS011;11982;50.810;4.442;2023-04-24T01:00:57;44.45;;;22.17;;
23608;SDS011;11982;50.810;4.442;2023-04-24T01:03:26;44.53;;;20.67;;
23608;SDS011;11982;50.810;4.442;2023-04-24T01:05:55;48.25;;;21.45;;
23608;SDS011;11982;50.810;4.442;2023-04-24T01:08:22;48.15;;;21.50;;
23608;SDS011;11982;50.810;4.442;2023-04-24T01:10:52;43.65;;;21.33;;
23608;SDS011;11982;50.810;4.442;2023-04-24T01:13:19;36.30;;;21.00;;
23608;SDS011;11982;50.810;4.442;2023-04-24T01:15:45;39.20;;;20.10;;
23608;SDS011;11982;50.810;4.442;2023-04-24T01:18:12;35.85;;;19.02;;
23608;SDS011;11982;50.810;4.442;2023-04-24T01:20:39;38.58;;;19.55;;
23608;SDS011;11982;50.810;4.442;2023-04-24T01:23:06;39.00;;;21.70;;
23608;SDS011;11982;50.810;4.442;2023-04-24T01:25:32;39.90;;;20.73;;
23608;SDS011;11982;50.810;4.442;2023-04-24T01:27:59;39.63;;;23.60;;
23608;SDS011;11982;50.810;4.442;2023-04-24T01:30:25;46.25;;;23.50;;
23608;SDS011;11982;50.810;4.442;2023-04-24T01:32:54;46.55;;;22.45;;
23608;SDS011;11982;50.810;4.442;2023-04-24T01:35:21;39.30;;;22.55;;
23608;SDS011;11982;50.810;4.442;2023-04-24T01:37:46;38.80;;;19.50;;
23608;SDS011;11982;50.810;4.442;2023-04-24T01:40:12;39.95;;;20.88;;
23608;SDS011;11982;50.810;4.442;2023-04-24T01:42:38;41.60;;;21.67;;
23608;SDS011;11982;50.810;4.442;2023-04-24T01:45:05;39.63;;;21.15;;
23608;SDS011;11982;50.810;4.442;2023-04-24T01:47:33;39.00;;;21.17;;
23608;SDS011;11982;50.810;4.442;2023-04-24T01:49:58;42.63;;;23.73;;
23608;SDS011;11982;50.810;4.442;2023-04-24T01:52:24;43.83;;;24.27;;
23608;SDS011;11982;50.810;4.442;2023-04-24T01:54:50;43.78;;;25.13;;
23608;SDS011;11982;50.810;4.442;2023-04-24T01:57:17;48.38;;;24.17;;
23608;SDS011;11982;50.810;4.442;2023-04-24T01:59:43;47.80;;;26.65;;
23608;SDS011;11982;50.810;4.442;2023-04-24T02:02:09;49.60;;;28.35;;
23608;SDS011;11982;50.810;4.442;2023-04-24T02:04:34;50.50;;;25.50;;
23608;SDS011;11982;50.810;4.442;2023-04-24T02:07:00;50.85;;;27.75;;
23608;SDS011;11982;50.810;4.442;2023-04-24T02:09:26;58.63;;;28.38;;
23608;SDS011;11982;50.810;4.442;2023-04-24T02:11:51;47.17;;;25.50;;
23608;SDS011;11982;50.810;4.442;2023-04-24T02:14:17;57.78;;;31.13;;
23608;SDS011;11982;50.810;4.442;2023-04-24T02:16:43;54.72;;;30.40;;
23608;SDS011;11982;50.810;4.442;2023-04-24T02:19:09;56.60;;;30.63;;
23608;SDS011;11982;50.810;4.442;2023-04-24T02:21:35;59.33;;;31.13;;
23608;SDS011;11982;50.810;4.442;2023-04-24T02:24:00;63.42;;;31.27;;
23608;SDS011;11982;50.810;4.442;2023-04-24T02:26:26;54.60;;;29.42;;
23608;SDS011;11982;50.810;4.442;2023-04-24T02:28:52;51.65;;;29.27;;
23608;SDS011;11982;50.810;4.442;2023-04-24T02:31:18;60.22;;;29.77;;
23608;SDS011;11982;50.810;4.442;2023-04-24T02:33:43;49.33;;;24.85;;
23608;SDS011;11982;50.810;4.442;2023-04-24T02:36:09;57.22;;;30.15;;
23608;SDS011;11982;50.810;4.442;2023-04-24T02:38:35;47.75;;;27.88;;
23608;SDS011;11982;50.810;4.442;2023-04-24T02:41:00;53.80;;;26.25;;
23608;SDS011;11982;50.810;4.442;2023-04-24T02:43:27;47.95;;;27.52;;
23608;SDS011;11982;50.810;4.442;2023-04-24T02:45:53;51.35;;;27.35;;
23608;SDS011;11982;50.810;4.442;2023-04-24T02:48:18;49.58;;;26.23;;
23608;SDS011;11982;50.810;4.442;2023-04-24T02:50:46;50.78;;;26.00;;
23608;SDS011;11982;50.810;4.442;2023-04-24T02:53:11;54.70;;;25.95;;
23608;SDS011;11982;50.810;4.442;2023-04-24T02:55:37;50.88;;;23.50;;
23608;SDS011;11982;50.810;4.442;2023-04-24T02:58:03;47.10;;;24.17;;
23608;SDS011;11982;50.810;4.442;2023-04-24T03:00:28;45.88;;;23.20;;
23608;SDS011;11982;50.810;4.442;2023-04-24T03:02:54;46.15;;;22.48;;
23608;SDS011;11982;50.810;4.442;2023-04-24T03:05:20;45.20;;;22.90;;
23608;SDS011;11982;50.810;4.442;2023-04-24T03:07:46;39.33;;;22.13;;
23608;SDS011;11982;50.810;4.442;2023-04-24T03:10:12;33.85;;;17.10;;
23608;SDS011;11982;50.810;4.442;2023-04-24T03:12:38;36.90;;;20.55;;
23608;SDS011;11982;50.810;4.442;2023-04-24T03:15:04;38.47;;;21.48;;
23608;SDS011;11982;50.810;4.442;2023-04-24T03:17:30;44.60;;;20.13;;
23608;SDS011;11982;50.810;4.442;2023-04-24T03:19:55;41.58;;;19.98;;
23608;SDS011;11982;50.810;4.442;2023-04-24T03:22:21;33.10;;;19.52;;
23608;SDS011;11982;50.810;4.442;2023-04-24T03:24:47;39.35;;;21.13;;
23608;SDS011;11982;50.810;4.442;2023-04-24T03:27:12;36.15;;;19.60;;
23608;SDS011;11982;50.810;4.442;2023-04-24T03:29:38;36.80;;;19.80;;
23608;SDS011;11982;50.810;4.442;2023-04-24T03:32:04;36.88;;;20.60;;
23608;SDS011;11982;50.810;4.442;2023-04-24T03:34:29;36.10;;;21.13;;
23608;SDS011;11982;50.810;4.442;2023-04-24T03:36:55;39.90;;;20.77;;
23608;SDS011;11982;50.810;4.442;2023-04-24T03:39:20;40.40;;;22.88;;
23608;SDS011;11982;50.810;4.442;2023-04-24T03:41:46;36.55;;;19.98;;
23608;SDS011;11982;50.810;4.442;2023-04-24T03:44:12;40.35;;;21.13;;
23608;SDS011;11982;50.810;4.442;2023-04-24T03:46:37;37.42;;;22.25;;
23608;SDS011;11982;50.810;4.442;2023-04-24T03:49:03;37.88;;;21.17;;
23608;SDS011;11982;50.810;4.442;2023-04-24T03:51:29;38.45;;;20.52;;
23608;SDS011;11982;50.810;4.442;2023-04-24T03:53:55;38.33;;;22.27;;
23608;SDS011;11982;50.810;4.442;2023-04-24T03:56:21;37.20;;;21.58;;
23608;SDS011;11982;50.810;4.442;2023-04-24T03:58:47;43.30;;;21.73;;
23608;SDS011;11982;50.810;4.442;2023-04-24T04:01:12;39.85;;;18.50;;
23608;SDS011;11982;50.810;4.442;2023-04-24T04:03:40;34.03;;;18.58;;
23608;SDS011;11982;50.810;4.442;2023-04-24T04:06:06;30.55;;;18.77;;
23608;SDS011;11982;50.810;4.442;2023-04-24T04:08:32;36.38;;;20.02;;
23608;SDS011;11982;50.810;4.442;2023-04-24T04:10:58;27.60;;;16.80;;
23608;SDS011;11982;50.810;4.442;2023-04-24T04:13:23;24.70;;;15.68;;
23608;SDS011;11982;50.810;4.442;2023-04-24T04:15:49;28.83;;;16.17;;
23608;SDS011;11982;50.810;4.442;2023-04-24T04:18:15;29.60;;;17.23;;
23608;SDS011;11982;50.810;4.442;2023-04-24T04:20:41;23.67;;;14.77;;
23608;SDS011;11982;50.810;4.442;2023-04-24T04:23:06;23.58;;;14.73;;
23608;SDS011;11982;50.810;4.442;2023-04-24T04:25:32;30.15;;;14.68;;
23608;SDS011;11982;50.810;4.442;2023-04-24T04:27:57;23.65;;;14.50;;
23608;SDS011;11982;50.810;4.442;2023-04-24T04:30:24;24.50;;;14.65;;
23608;SDS011;11982;50.810;4.442;2023-04-24T04:32:50;32.13;;;15.48;;
23608;SDS011;11982;50.810;4.442;2023-04-24T04:35:16;25.35;;;14.88;;
23608;SDS011;11982;50.810;4.442;2023-04-24T04:37:42;24.67;;;14.63;;
23608;SDS011;11982;50.810;4.442;2023-04-24T04:40:08;24.67;;;14.88;;
23608;SDS011;11982;50.810;4.442;2023-04-24T04:42:39;28.20;;;13.82;;
23608;SDS011;11982;50.810;4.442;2023-04-24T04:45:06;21.75;;;13.25;;
23608;SDS011;11982;50.810;4.442;2023-04-24T04:47:33;23.05;;;14.70;;
23608;SDS011;11982;50.810;4.442;2023-04-24T04:49:59;23.45;;;14.30;;
23608;SDS011;11982;50.810;4.442;2023-04-24T04:52:26;27.73;;;13.60;;
23608;SDS011;11982;50.810;4.442;2023-04-24T04:54:52;24.08;;;13.80;;
23608;SDS011;11982;50.810;4.442;2023-04-24T04:57:18;28.50;;;15.35;;
23608;SDS011;11982;50.810;4.442;2023-04-24T04:59:43;29.45;;;16.13;;
23608;SDS011;11982;50.810;4.442;2023-04-24T05:02:09;33.15;;;17.05;;
23608;SDS011;11982;50.810;4.442;2023-04-24T05:04:35;42.53;;;19.60;;
23608;SDS011;11982;50.810;4.442;2023-04-24T05:07:01;36.83;;;20.50;;
23608;SDS011;11982;50.810;4.442;2023-04-24T05:09:26;40.63;;;17.52;;
23608;SDS011;11982;50.810;4.442;2023-04-24T05:11:54;35.90;;;20.52;;
23608;SDS011;11982;50.810;4.442;2023-04-24T05:14:20;36.60;;;20.63;;
23608;SDS011;11982;50.810;4.442;2023-04-24T05:16:46;42.92;;;20.75;;
23608;SDS011;11982;50.810;4.442;2023-04-24T05:19:12;42.30;;;21.13;;
23608;SDS011;11982;50.810;4.442;2023-04-24T05:21:39;40.50;;;22.50;;
23608;SDS011;11982;50.810;4.442;2023-04-24T05:24:05;38.40;;;19.88;;
23608;SDS011;11982;50.810;4.442;2023-04-24T05:26:31;37.47;;;21.92;;
23608;SDS011;11982;50.810;4.442;2023-04-24T05:28:57;44.53;;;22.65;;
23608;SDS011;11982;50.810;4.442;2023-04-24T05:31:23;33.45;;;18.75;;
23608;SDS011;11982;50.810;4.442;2023-04-24T05:33:49;35.95;;;18.48;;
23608;SDS011;11982;50.810;4.442;2023-04-24T05:36:14;49.53;;;23.65;;
23608;SDS011;11982;50.810;4.442;2023-04-24T05:38:40;41.72;;;20.98;;
23608;SDS011;11982;50.810;4.442;2023-04-24T05:41:06;40.03;;;22.35;;
23608;SDS011;11982;50.810;4.442;2023-04-24T05:43:31;48.25;;;24.98;;
23608;SDS011;11982;50.810;4.442;2023-04-24T05:45:57;48.95;;;24.77;;
23608;SDS011;11982;50.810;4.442;2023-04-24T05:48:23;53.80;;;25.13;;
23608;SDS011;11982;50.810;4.442;2023-04-24T05:50:48;42.60;;;23.45;;
23608;SDS011;11982;50.810;4.442;2023-04-24T05:53:14;45.75;;;23.17;;
23608;SDS011;11982;50.810;4.442;2023-04-24T05:55:40;48.38;;;23.00;;
23608;SDS011;11982;50.810;4.442;2023-04-24T05:58:06;42.33;;;22.70;;
23608;SDS011;11982;50.810;4.442;2023-04-24T06:00:32;50.08;;;22.95;;
23608;SDS011;11982;50.810;4.442;2023-04-24T06:02:59;44.78;;;22.00;;
23608;SDS011;11982;50.810;4.442;2023-04-24T06:05:25;39.58;;;20.48;;
23608;SDS011;11982;50.810;4.442;2023-04-24T06:07:51;50.30;;;23.75;;
23608;SDS011;11982;50.810;4.442;2023-04-24T06:10:17;47.80;;;23.73;;
23608;SDS011;11982;50.810;4.442;2023-04-24T06:12:42;45.13;;;24.65;;
23608;SDS011;11982;50.810;4.442;2023-04-24T06:15:08;38.38;;;20.17;;
23608;SDS011;11982;50.810;4.442;2023-04-24T06:17:34;46.83;;;23.35;;
23608;SDS011;11982;50.810;4.442;2023-04-24T06:20:00;42.50;;;22.10;;
23608;SDS011;11982;50.810;4.442;2023-04-24T06:22:25;44.38;;;21.90;;
23608;SDS011;11982;50.810;4.442;2023-04-24T06:24:51;45.10;;;22.63;;
23608;SDS011;11982;50.810;4.442;2023-04-24T06:27:17;43.92;;;23.00;;
23608;SDS011;11982;50.810;4.442;2023-04-24T06:29:42;45.70;;;25.25;;
23608;SDS011;11982;50.810;4.442;2023-04-24T06:32:08;47.58;;;25.25;;
23608;SDS011;11982;50.810;4.442;2023-04-24T06:34:34;50.67;;;25.25;;
23608;SDS011;11982;50.810;4.442;2023-04-24T06:37:00;52.40;;;26.80;;
23608;SDS011;11982;50.810;4.442;2023-04-24T06:39:26;50.08;;;26.75;;
23608;SDS011;11982;50.810;4.442;2023-04-24T06:41:51;55.55;;;27.63;;
23608;SDS011;11982;50.810;4.442;2023-04-24T06:44:17;54.50;;;26.42;;
23608;SDS011;11982;50.810;4.442;2023-04-24T06:46:43;52.75;;;26.92;;
23608;SDS011;11982;50.810;4.442;2023-04-24T06:49:09;50.17;;;25.85;;
23608;SDS011;11982;50.810;4.442;2023-04-24T06:51:34;58.22;;;29.02;;
23608;SDS011;11982;50.810;4.442;2023-04-24T06:54:00;63.10;;;30.77;;
23608;SDS011;11982;50.810;4.442;2023-04-24T06:56:26;56.33;;;28.63;;
23608;SDS011;11982;50.810;4.442;2023-04-24T06:58:54;63.50;;;29.05;;
23608;SDS011;11982;50.810;4.442;2023-04-24T07:01:19;63.72;;;30.73;;
23608;SDS011;11982;50.810;4.442;2023-04-24T07:03:45;62.13;;;30.25;;
23608;SDS011;11982;50.810;4.442;2023-04-24T07:06:17;61.50;;;29.88;;
23608;SDS011;11982;50.810;4.442;2023-04-24T07:08:46;60.80;;;29.48;;
23608;SDS011;11982;50.810;4.442;2023-04-24T07:11:12;54.95;;;26.17;;
23608;SDS011;11982;50.810;4.442;2023-04-24T07:13:38;54.65;;;29.30;;
23608;SDS011;11982;50.810;4.442;2023-04-24T07:16:06;63.45;;;30.95;;
23608;SDS011;11982;50.810;4.442;2023-04-24T07:18:33;64.90;;;29.92;;
23608;SDS011;11982;50.810;4.442;2023-04-24T07:20:59;53.90;;;25.90;;
23608;SDS011;11982;50.810;4.442;2023-04-24T07:23:24;49.92;;;25.13;;
23608;SDS011;11982;50.810;4.442;2023-04-24T07:25:50;58.90;;;26.35;;
23608;SDS011;11982;50.810;4.442;2023-04-24T07:28:16;52.63;;;23.75;;
23608;SDS011;11982;50.810;4.442;2023-04-24T07:30:43;47.00;;;23.02;;
23608;SDS011;11982;50.810;4.442;2023-04-24T07:33:08;53.67;;;23.27;;
23608;SDS011;11982;50.810;4.442;2023-04-24T07:35:36;51.10;;;22.65;;
23608;SDS011;11982;50.810;4.442;2023-04-24T07:38:02;49.40;;;22.83;;
23608;SDS011;11982;50.810;4.442;2023-04-24T07:40:27;39.55;;;21.92;;
23608;SDS011;11982;50.810;4.442;2023-04-24T07:42:53;52.08;;;23.77;;
23608;SDS011;11982;50.810;4.442;2023-04-24T07:45:18;41.00;;;22.10;;
23608;SDS011;11982;50.810;4.442;2023-04-24T07:47:44;48.92;;;24.10;;
23608;SDS011;11982;50.810;4.442;2023-04-24T07:50:10;46.28;;;23.52;;
23608;SDS011;11982;50.810;4.442;2023-04-24T07:52:37;48.40;;;24.58;;
23608;SDS011;11982;50.810;4.442;2023-04-24T07:55:03;50.92;;;24.95;;
23608;SDS011;11982;50.810;4.442;2023-04-24T07:57:30;56.38;;;23.85;;
23608;SDS011;11982;50.810;4.442;2023-04-24T07:59:55;45.45;;;24.98;;
23608;SDS011;11982;50.810;4.442;2023-04-24T08:02:21;46.10;;;22.02;;
23608;SDS011;11982;50.810;4.442;2023-04-24T08:04:51;41.95;;;21.23;;
23608;SDS011;11982;50.810;4.442;2023-04-24T08:07:18;45.38;;;22.23;;
23608;SDS011;11982;50.810;4.442;2023-04-24T08:09:44;44.67;;;22.63;;
23608;SDS011;11982;50.810;4.442;2023-04-24T08:12:10;45.17;;;21.48;;
23608;SDS011;11982;50.810;4.442;2023-04-24T08:14:36;31.88;;;15.52;;
23608;SDS011;11982;50.810;4.442;2023-04-24T08:17:01;34.60;;;18.98;;
23608;SDS011;11982;50.810;4.442;2023-04-24T08:19:28;44.50;;;20.10;;
23608;SDS011;11982;50.810;4.442;2023-04-24T08:21:54;35.47;;;17.38;;
23608;SDS011;11982;50.810;4.442;2023-04-24T08:24:20;38.40;;;16.90;;
23608;SDS011;11982;50.810;4.442;2023-04-24T08:26:45;39.10;;;16.45;;
23608;SDS011;11982;50.810;4.442;2023-04-24T08:29:11;36.10;;;14.43;;
23608;SDS011;11982;50.810;4.442;2023-04-24T08:31:38;30.70;;;14.70;;
23608;SDS011;11982;50.810;4.442;2023-04-24T08:34:03;28.63;;;12.90;;
23608;SDS011;11982;50.810;4.442;2023-04-24T08:36:29;27.80;;;12.65;;
23608;SDS011;11982;50.810;4.442;2023-04-24T08:38:55;31.02;;;13.55;;
23608;SDS011;11982;50.810;4.442;2023-04-24T08:41:21;28.00;;;12.27;;
23608;SDS011;11982;50.810;4.442;2023-04-24T08:43:49;27.20;;;11.27;;
23608;SDS011;11982;50.810;4.442;2023-04-24T08:46:16;27.20;;;11.35;;
23608;SDS011;11982;50.810;4.442;2023-04-24T08:48:43;28.63;;;10.95;;
23608;SDS011;11982;50.810;4.442;2023-04-24T08:51:10;25.60;;;11.35;;
23608;SDS011;11982;50.810;4.442;2023-04-24T08:53:36;29.88;;;12.48;;
23608;SDS011;11982;50.810;4.442;2023-04-24T08:56:02;27.80;;;11.95;;
23608;SDS011;11982;50.810;4.442;2023-04-24T08:58:28;25.85;;;10.63;;
23608;SDS011;11982;50.810;4.442;2023-04-24T09:00:56;30.50;;;10.85;;
23608;SDS011;11982;50.810;4.442;2023-04-24T09:03:22;30.05;;;10.05;;
23608;SDS011;11982;50.810;4.442;2023-04-24T09:05:49;26.25;;;9.82;;
23608;SDS011;11982;50.810;4.442;2023-04-24T09:08:18;15.32;;;6.55;;
23608;SDS011;11982;50.810;4.442;2023-04-24T09:10:46;19.02;;;8.73;;
23608;SDS011;11982;50.810;4.442;2023-04-24T09:13:11;20.27;;;8.38;;
23608;SDS011;11982;50.810;4.442;2023-04-24T09:15:38;19.35;;;7.50;;
23608;SDS011;11982;50.810;4.442;2023-04-24T09:18:05;16.42;;;7.10;;
23608;SDS011;11982;50.810;4.442;2023-04-24T09:20:31;16.83;;;7.57;;
23608;SDS011;11982;50.810;4.442;2023-04-24T09:22:57;15.52;;;7.72;;
23608;SDS011;11982;50.810;4.442;2023-04-24T09:25:32;16.10;;;7.10;;
23608;SDS011;11982;50.810;4.442;2023-04-24T09:28:01;16.48;;;6.90;;
23608;SDS011;11982;50.810;4.442;2023-04-24T09:30:28;12.43;;;6.60;;
23608;SDS011;11982;50.810;4.442;2023-04-24T09:33:13;20.83;;;7.72;;
23608;SDS011;11982;50.810;4.442;2023-04-24T09:35:41;18.13;;;6.93;;
23608;SDS011;11982;50.810;4.442;2023-04-24T09:38:08;17.25;;;6.68;;
23608;SDS011;11982;50.810;4.442;2023-04-24T09:40:35;16.30;;;6.90;;
23608;SDS011;11982;50.810;4.442;2023-04-24T09:43:01;25.58;;;7.90;;
23608;SDS011;11982;50.810;4.442;2023-04-24T09:45:37;15.60;;;7.05;;
23608;SDS011;11982;50.810;4.442;2023-04-24T09:48:04;19.90;;;6.70;;
23608;SDS011;11982;50.810;4.442;2023-04-24T09:50:31;20.52;;;6.57;;
23608;SDS011;11982;50.810;4.442;2023-04-24T09:53:06;17.27;;;7.28;;
23608;SDS011;11982;50.810;4.442;2023-04-24T09:55:39;16.20;;;6.65;;
23608;SDS011;11982;50.810;4.442;2023-04-24T09:58:09;15.68;;;5.93;;
23608;SDS011;11982;50.810;4.442;2023-04-24T10:00:35;15.52;;;6.22;;
23608;SDS011;11982;50.810;4.442;2023-04-24T10:03:02;15.05;;;6.60;;
23608;SDS011;11982;50.810;4.442;2023-04-24T10:05:32;21.27;;;6.10;;
23608;SDS011;11982;50.810;4.442;2023-04-24T10:08:06;17.80;;;6.88;;
23608;SDS011;11982;50.810;4.442;2023-04-24T10:10:38;18.85;;;6.60;;
23608;SDS011;11982;50.810;4.442;2023-04-24T10:13:11;12.50;;;5.82;;
23608;SDS011;11982;50.810;4.442;2023-04-24T10:15:38;13.13;;;5.75;;
23608;SDS011;11982;50.810;4.442;2023-04-24T10:18:05;12.60;;;5.30;;
23608;SDS011;11982;50.810;4.442;2023-04-24T10:20:31;12.70;;;5.03;;
23608;SDS011;11982;50.810;4.442;2023-04-24T10:22:59;15.00;;;5.32;;
23608;SDS011;11982;50.810;4.442;2023-04-24T10:25:26;16.05;;;5.43;;
23608;SDS011;11982;50.810;4.442;2023-04-24T10:27:53;10.65;;;5.63;;
23608;SDS011;11982;50.810;4.442;2023-04-24T10:30:24;17.88;;;6.32;;
23608;SDS011;11982;50.810;4.442;2023-04-24T10:32:51;16.27;;;6.07;;
23608;SDS011;11982;50.810;4.442;2023-04-24T10:35:17;17.20;;;7.00;;
23608;SDS011;11982;50.810;4.442;2023-04-24T10:38:18;17.98;;;6.95;;
23608;SDS011;11982;50.810;4.442;2023-04-24T10:40:37;18.05;;;7.60;;
23608;SDS011;11982;50.810;4.442;2023-04-24T10:43:03;14.93;;;6.90;;
23608;SDS011;11982;50.810;4.442;2023-04-24T10:45:34;17.30;;;6.88;;
23608;SDS011;11982;50.810;4.442;2023-04-24T10:50:45;13.43;;;7.03;;
23608;SDS011;11982;50.810;4.442;2023-04-24T10:53:13;15.82;;;7.40;;
23608;SDS011;11982;50.810;4.442;2023-04-24T10:55:50;13.18;;;6.53;;
23608;SDS011;11982;50.810;4.442;2023-04-24T10:58:21;20.27;;;7.55;;
23608;SDS011;11982;50.810;4.442;2023-04-24T11:00:58;11.90;;;6.60;;
23608;SDS011;11982;50.810;4.442;2023-04-24T11:03:28;14.05;;;7.40;;
23608;SDS011;11982;50.810;4.442;2023-04-24T11:05:56;17.73;;;7.55;;
23608;SDS011;11982;50.810;4.442;2023-04-24T11:08:32;12.85;;;7.25;;
23608;SDS011;11982;50.810;4.442;2023-04-24T11:11:09;14.65;;;7.95;;
23608;SDS011;11982;50.810;4.442;2023-04-24T11:19:00;15.30;;;8.20;;
23608;SDS011;11982;50.810;4.442;2023-04-24T11:22:03;13.55;;;5.70;;
23608;SDS011;11982;50.810;4.442;2023-04-24T11:24:38;14.65;;;8.15;;
23608;SDS011;11982;50.810;4.442;2023-04-24T11:27:18;16.95;;;7.38;;
23608;SDS011;11982;50.810;4.442;2023-04-24T11:32:24;13.63;;;6.78;;
23608;SDS011;11982;50.810;4.442;2023-04-24T11:34:58;11.93;;;6.88;;
23608;SDS011;11982;50.810;4.442;2023-04-24T11:37:25;15.50;;;7.47;;
23608;SDS011;11982;50.810;4.442;2023-04-24T11:39:56;16.45;;;7.10;;
23608;SDS011;11982;50.810;4.442;2023-04-24T11:42:22;15.85;;;7.47;;
23608;SDS011;11982;50.810;4.442;2023-04-24T11:44:49;13.82;;;6.45;;
23608;SDS011;11982;50.810;4.442;2023-04-24T11:47:16;11.68;;;7.40;;
23608;SDS011;11982;50.810;4.442;2023-04-24T11:49:42;16.85;;;7.43;;
23608;SDS011;11982;50.810;4.442;2023-04-24T11:52:08;13.50;;;8.05;;
23608;SDS011;11982;50.810;4.442;2023-04-24T11:54:33;12.63;;;7.82;;
23608;SDS011;11982;50.810;4.442;2023-04-24T11:56:59;13.65;;;8.32;;
23608;SDS011;11982;50.810;4.442;2023-04-24T11:59:34;15.93;;;9.02;;
23608;SDS011;11982;50.810;4.442;2023-04-24T12:02:01;17.77;;;8.75;;
23608;SDS011;11982;50.810;4.442;2023-04-24T12:04:37;19.20;;;10.00;;
23608;SDS011;11982;50.810;4.442;2023-04-24T12:07:04;19.60;;;9.02;;
23608;SDS011;11982;50.810;4.442;2023-04-24T12:09:44;13.57;;;8.82;;
23608;SDS011;11982;50.810;4.442;2023-04-24T12:12:11;15.38;;;8.60;;
23608;SDS011;11982;50.810;4.442;2023-04-24T12:14:52;14.32;;;9.07;;
23608;SDS011;11982;50.810;4.442;2023-04-24T12:17:27;15.98;;;8.57;;
23608;SDS011;11982;50.810;4.442;2023-04-24T12:19:58;22.52;;;11.48;;
23608;SDS011;11982;50.810;4.442;2023-04-24T12:25:16;24.98;;;11.77;;
23608;SDS011;11982;50.810;4.442;2023-04-24T12:27:43;16.08;;;10.15;;
23608;SDS011;11982;50.810;4.442;2023-04-24T12:30:11;16.08;;;9.18;;
23608;SDS011;11982;50.810;4.442;2023-04-24T12:32:42;15.50;;;8.18;;
23608;SDS011;11982;50.810;4.442;2023-04-24T12:35:12;15.45;;;9.32;;
23608;SDS011;11982;50.810;4.442;2023-04-24T12:37:41;16.92;;;9.75;;
23608;SDS011;11982;50.810;4.442;2023-04-24T12:40:09;15.43;;;8.85;;
23608;SDS011;11982;50.810;4.442;2023-04-24T12:42:41;12.70;;;8.82;;
23608;SDS011;11982;50.810;4.442;2023-04-24T12:45:08;17.50;;;9.15;;
23608;SDS011;11982;50.810;4.442;2023-04-24T12:47:37;13.40;;;8.73;;
23608;SDS011;11982;50.810;4.442;2023-04-24T12:50:03;12.30;;;7.75;;
23608;SDS011;11982;50.810;4.442;2023-04-24T12:52:29;8.02;;;6.28;;
23608;SDS011;11982;50.810;4.442;2023-04-24T12:54:57;11.13;;;7.13;;
23608;SDS011;11982;50.810;4.442;2023-04-24T12:57:24;13.73;;;7.55;;
23608;SDS011;11982;50.810;4.442;2023-04-24T12:59:53;10.45;;;6.35;;
23608;SDS011;11982;50.810;4.442;2023-04-24T13:02:20;14.13;;;8.13;;
23608;SDS011;11982;50.810;4.442;2023-04-24T13:04:47;11.32;;;7.50;;
23608;SDS011;11982;50.810;4.442;2023-04-24T13:07:13;14.27;;;7.88;;
23608;SDS011;11982;50.810;4.442;2023-04-24T13:09:40;13.88;;;6.68;;
23608;SDS011;11982;50.810;4.442;2023-04-24T13:12:07;11.27;;;6.18;;
23608;SDS011;11982;50.810;4.442;2023-04-24T13:14:33;11.98;;;6.72;;
23608;SDS011;11982;50.810;4.442;2023-04-24T13:16:59;15.77;;;7.28;;
23608;SDS011;11982;50.810;4.442;2023-04-24T13:19:26;11.90;;;6.80;;
23608;SDS011;11982;50.810;4.442;2023-04-24T13:21:56;13.18;;;6.80;;
23608;SDS011;11982;50.810;4.442;2023-04-24T13:24:25;15.98;;;6.80;;
23608;SDS011;11982;50.810;4.442;2023-04-24T13:26:53;10.32;;;6.20;;
23608;SDS011;11982;50.810;4.442;2023-04-24T13:29:21;10.20;;;5.20;;
23608;SDS011;11982;50.810;4.442;2023-04-24T13:31:49;10.07;;;6.20;;
23608;SDS011;11982;50.810;4.442;2023-04-24T13:34:15;10.45;;;5.97;;
23608;SDS011;11982;50.810;4.442;2023-04-24T13:36:41;9.30;;;5.53;;
23608;SDS011;11982;50.810;4.442;2023-04-24T13:39:07;9.43;;;5.28;;
23608;SDS011;11982;50.810;4.442;2023-04-24T13:41:33;11.77;;;4.93;;
23608;SDS011;11982;50.810;4.442;2023-04-24T13:44:00;8.93;;;5.00;;
23608;SDS011;11982;50.810;4.442;2023-04-24T13:46:26;9.73;;;4.40;;
23608;SDS011;11982;50.810;4.442;2023-04-24T13:48:52;9.23;;;4.57;;
23608;SDS011;11982;50.810;4.442;2023-04-24T13:51:17;6.93;;;4.45;;
23608;SDS011;11982;50.810;4.442;2023-04-24T13:53:43;8.15;;;4.78;;
23608;SDS011;11982;50.810;4.442;2023-04-24T13:56:09;9.50;;;4.65;;
23608;SDS011;11982;50.810;4.442;2023-04-24T13:58:35;8.35;;;4.80;;
23608;SDS011;11982;50.810;4.442;2023-04-24T14:01:04;10.05;;;4.22;;
23608;SDS011;11982;50.810;4.442;2023-04-24T14:03:29;11.25;;;4.55;;
23608;SDS011;11982;50.810;4.442;2023-04-24T14:05:55;14.45;;;4.70;;
23608;SDS011;11982;50.810;4.442;2023-04-24T14:08:21;11.13;;;4.65;;
23608;SDS011;11982;50.810;4.442;2023-04-24T14:10:47;8.50;;;4.53;;
23608;SDS011;11982;50.810;4.442;2023-04-24T14:13:12;10.02;;;4.13;;
23608;SDS011;11982;50.810;4.442;2023-04-24T14:15:38;10.25;;;4.00;;
23608;SDS011;11982;50.810;4.442;2023-04-24T14:18:04;9.88;;;4.07;;
23608;SDS011;11982;50.810;4.442;2023-04-24T14:20:30;7.28;;;3.80;;
23608;SDS011;11982;50.810;4.442;2023-04-24T14:22:56;6.13;;;3.55;;
23608;SDS011;11982;50.810;4.442;2023-04-24T14:25:24;8.27;;;3.50;;
23608;SDS011;11982;50.810;4.442;2023-04-24T14:27:50;6.38;;;2.80;;
23608;SDS011;11982;50.810;4.442;2023-04-24T14:30:16;5.18;;;2.78;;
23608;SDS011;11982;50.810;4.442;2023-04-24T14:32:42;8.57;;;3.30;;
23608;SDS011;11982;50.810;4.442;2023-04-24T14:35:08;6.10;;;3.03;;
23608;SDS011;11982;50.810;4.442;2023-04-24T14:37:33;6.10;;;3.30;;